createdAt,value
2023-03-22T00:00:19.069Z,9.10
2023-03-22T00:11:17.584Z,8.91
2023-03-22T00:16:22.287Z,9.06
2023-03-22T00:21:27.838Z,9.06
2023-03-22T00:26:31.860Z,9.10
2023-03-22T00:31:36.114Z,9.10
2023-03-22T00:36:41.466Z,8.96
2023-03-22T00:41:45.401Z,8.98
2023-03-22T00:46:49.446Z,8.78
2023-03-22T00:51:55.354Z,8.96
2023-03-22T00:56:59.511Z,8.94
2023-03-22T01:02:04.337Z,9.00
2023-03-22T01:12:40.877Z,8.83
2023-03-22T01:17:45.082Z,9.05
2023-03-22T01:22:50.714Z,8.99
2023-03-22T01:27:56.140Z,8.95
2023-03-22T01:33:00.217Z,9.02
2023-03-22T01:38:06.081Z,9.00
2023-03-22T01:43:17.300Z,8.91
2023-03-22T01:48:29.987Z,8.95
2023-03-22T01:53:40.372Z,9.11
2023-03-22T01:58:44.814Z,8.94
2023-03-22T02:03:56.625Z,8.84
2023-03-22T02:09:03.914Z,8.83
2023-03-22T02:14:43.331Z,8.69
2023-03-22T02:20:42.859Z,8.83
2023-03-22T02:26:24.061Z,8.72
2023-03-22T02:31:58.389Z,8.44
2023-03-22T02:37:29.984Z,8.32
2023-03-22T02:42:46.084Z,8.35
2023-03-22T02:47:57.174Z,8.19
2023-03-22T02:53:07.189Z,8.19
2023-03-22T02:58:17.432Z,8.24
2023-03-22T03:03:25.559Z,8.34
2023-03-22T03:08:31.332Z,8.65
2023-03-22T03:19:16.889Z,8.74
2023-03-22T03:24:27.996Z,8.71
2023-03-22T03:29:39.717Z,8.75
2023-03-22T03:34:51.480Z,8.70
2023-03-22T03:39:59.605Z,8.77
2023-03-22T03:45:04.155Z,9.09
2023-03-22T03:50:10.593Z,8.86
2023-03-22T03:55:14.546Z,8.95
2023-03-22T04:00:20.041Z,8.73
2023-03-22T04:05:46.132Z,8.61
2023-03-22T04:10:51.890Z,8.66
2023-03-22T04:16:02.096Z,8.71
2023-03-22T04:21:12.265Z,8.49
2023-03-22T04:26:45.642Z,8.54
2023-03-22T04:32:05.139Z,8.50
2023-03-22T04:37:17.604Z,8.24
2023-03-22T04:42:29.859Z,8.60
2023-03-22T04:47:43.122Z,8.95
2023-03-22T04:52:50.115Z,9.07
2023-03-22T04:57:54.770Z,8.97
2023-03-22T05:03:02.084Z,8.84
2023-03-22T05:08:16.177Z,8.86
2023-03-22T05:13:26.033Z,8.58
2023-03-22T05:18:32.854Z,8.74
2023-03-22T05:23:38.457Z,8.86
2023-03-22T05:28:42.891Z,9.20
2023-03-22T05:33:56.160Z,9.04
2023-03-22T05:39:04.836Z,9.01
2023-03-22T05:44:09.283Z,8.99
2023-03-22T05:49:16.610Z,8.78
2023-03-22T05:54:23.711Z,8.64
2023-03-22T05:59:28.890Z,8.82
2023-03-22T06:04:33.642Z,8.96
2023-03-22T06:15:14.202Z,9.11
2023-03-22T06:20:38.704Z,9.18
2023-03-22T06:25:50.366Z,9.17
2023-03-22T06:30:55.493Z,9.24
2023-03-22T06:36:09.415Z,9.24
2023-03-22T06:41:24.829Z,9.32
2023-03-22T06:46:30.128Z,9.36
2023-03-22T06:51:44.453Z,9.48
2023-03-22T06:56:50.570Z,9.73
2023-03-22T07:01:54.620Z,9.78
2023-03-22T07:06:59.546Z,9.61
2023-03-22T07:12:07.098Z,9.50
2023-03-22T07:17:12.740Z,9.51
2023-03-22T07:22:16.964Z,9.68
2023-03-22T07:27:22.894Z,9.47
2023-03-22T07:32:29.251Z,9.48
2023-03-22T07:37:46.844Z,9.59
2023-03-22T07:43:01.059Z,9.55
2023-03-22T07:48:13.841Z,9.87
2023-03-22T07:53:53.019Z,9.66
2023-03-22T07:58:58.887Z,9.68
2023-03-22T08:04:03.332Z,9.52
2023-03-22T08:09:17.001Z,9.35
2023-03-22T08:14:34.031Z,9.33
2023-03-22T08:19:41.897Z,9.24
2023-03-22T08:24:50.259Z,9.20
2023-03-22T08:30:05.778Z,9.17
2023-03-22T08:35:11.404Z,8.91
2023-03-22T08:40:15.921Z,8.78
2023-03-22T08:45:28.490Z,8.93
2023-03-22T08:50:39.946Z,8.98
2023-03-22T08:55:51.794Z,8.92
2023-03-22T09:01:21.216Z,9.08
2023-03-22T09:06:35.647Z,9.01
2023-03-22T09:11:41.423Z,8.91
2023-03-22T09:16:47.234Z,8.73
2023-03-22T09:21:52.181Z,8.86
2023-03-22T09:27:07.791Z,8.59
2023-03-22T09:32:13.354Z,8.66
2023-03-22T09:37:18.921Z,8.47
2023-03-22T09:42:38.725Z,8.59
2023-03-22T09:47:49.866Z,8.58
2023-03-22T09:52:54.920Z,8.90
2023-03-22T09:58:09.949Z,8.86
2023-03-22T10:03:33.588Z,8.51
2023-03-22T10:08:49.908Z,8.70
2023-03-22T10:14:03.406Z,8.84
2023-03-22T10:19:18.906Z,8.91
2023-03-22T10:24:28.414Z,9.13
2023-03-22T10:29:37.745Z,9.32
2023-03-22T10:34:44.041Z,9.47
2023-03-22T10:39:50.872Z,9.31
2023-03-22T10:44:59.063Z,9.57
2023-03-22T10:50:09.842Z,9.62
2023-03-22T10:55:16.928Z,9.51
2023-03-22T11:00:24.287Z,9.64
2023-03-22T11:05:31.463Z,9.75
2023-03-22T11:10:35.515Z,9.72
2023-03-22T11:15:42.535Z,9.59
2023-03-22T11:20:59.165Z,9.52
2023-03-22T11:26:13.374Z,9.57
2023-03-22T11:31:19.432Z,9.74
2023-03-22T11:36:25.479Z,9.77
2023-03-22T11:41:32.551Z,9.82
2023-03-22T11:46:38.166Z,9.71
2023-03-22T11:51:44.375Z,9.59
2023-03-22T11:56:50.485Z,9.56
2023-03-22T12:02:00.061Z,9.48
2023-03-22T12:07:15.631Z,9.61
2023-03-22T12:12:24.908Z,9.36
2023-03-22T12:17:31.802Z,9.41
2023-03-22T12:22:42.852Z,9.48
2023-03-22T12:27:50.005Z,9.44
2023-03-22T12:33:00.046Z,9.39
2023-03-22T12:38:19.810Z,9.39
2023-03-22T12:43:29.195Z,9.22
2023-03-22T12:48:38.678Z,9.25
2023-03-22T12:53:47.338Z,9.31
2023-03-22T12:58:53.817Z,9.39
2023-03-22T13:03:59.628Z,9.37
2023-03-22T13:09:16.235Z,9.46
2023-03-22T13:14:59.569Z,9.39
2023-03-22T13:20:31.379Z,9.47
2023-03-22T13:25:38.875Z,9.39
2023-03-22T13:30:50.630Z,9.70
2023-03-22T13:35:58.918Z,9.48
2023-03-22T13:41:07.372Z,9.59
2023-03-22T13:46:46.437Z,9.55
2023-03-22T13:51:51.647Z,10.00
2023-03-22T13:57:01.749Z,9.81
2023-03-22T14:02:18.586Z,9.96
2023-03-22T14:07:27.028Z,9.79
2023-03-22T14:12:37.983Z,10.08
2023-03-22T14:17:50.074Z,9.94
